createdAt,value
2023-03-23T15:59:24.077Z,21.10
2023-03-23T16:02:33.386Z,20.90
2023-03-23T16:05:01.274Z,20.80
2023-03-23T16:08:06.295Z,20.70
2023-03-23T16:20:59.295Z,20.70
2023-03-23T16:23:35.051Z,20.70
2023-03-23T16:29:16.034Z,20.40
2023-03-23T16:31:58.310Z,20.30
2023-03-23T16:34:30.283Z,20.10
2023-03-23T16:37:25.090Z,19.90
2023-03-23T16:43:52.496Z,19.60
2023-03-23T16:46:23.111Z,19.50
2023-03-23T16:53:25.526Z,19.20
2023-03-23T16:56:24.047Z,19.10
2023-03-23T16:59:22.190Z,19.00
2023-03-23T17:01:50.381Z,18.90
2023-03-23T17:07:47.487Z,18.80
2023-03-23T17:18:07.390Z,18.90
2023-03-23T17:21:36.309Z,18.90
2023-03-23T17:24:28.036Z,18.90
2023-03-23T17:27:03.928Z,18.80
2023-03-23T17:30:18.015Z,18.70
2023-03-23T17:36:01.031Z,18.60
2023-03-23T17:38:50.728Z,18.50
2023-03-23T17:41:18.216Z,18.40
2023-03-23T17:57:24.889Z,18.00
2023-03-23T17:59:58.180Z,18.00
2023-03-23T18:02:09.862Z,18.30
2023-03-23T18:02:25.815Z,17.90
2023-03-23T18:08:52.226Z,17.90
2023-03-23T18:15:21.156Z,17.80
2023-03-23T18:18:06.272Z,17.90
2023-03-23T18:20:40.528Z,17.80
2023-03-23T18:23:31.499Z,17.80
2023-03-23T18:26:27.102Z,17.80
2023-03-23T18:29:16.684Z,17.80
2023-03-23T18:31:54.580Z,17.80
2023-03-23T18:34:54.227Z,17.80
2023-03-23T18:37:39.831Z,17.70
2023-03-23T18:40:23.025Z,17.70
2023-03-23T18:43:19.191Z,17.70
2023-03-23T18:46:05.095Z,17.70
2023-03-23T18:48:39.255Z,17.60
2023-03-23T18:51:30.804Z,17.60
2023-03-23T18:54:44.961Z,17.50
2023-03-23T18:57:51.179Z,17.50
2023-03-23T19:03:45.616Z,17.40
2023-03-23T19:06:37.334Z,17.30
2023-03-23T19:09:23.821Z,17.30
2023-03-23T19:11:59.808Z,17.20
2023-03-23T19:15:07.012Z,17.20
2023-03-23T19:18:11.339Z,17.10
2023-03-23T19:21:35.461Z,17.10
2023-03-23T19:24:18.425Z,17.10
2023-03-23T19:28:18.149Z,17.00
2023-03-23T19:30:35.302Z,17.00
2023-03-23T19:33:14.297Z,17.00
2023-03-23T19:36:11.864Z,17.00
2023-03-23T19:39:10.242Z,17.00
2023-03-23T19:44:45.611Z,16.90
2023-03-23T19:47:13.546Z,17.00
2023-03-23T19:50:13.338Z,16.90
2023-03-23T19:53:04.920Z,16.90
2023-03-23T19:55:53.484Z,17.00
2023-03-23T19:58:28.619Z,17.00
2023-03-23T20:01:03.099Z,17.00
2023-03-23T20:03:52.249Z,17.00
2023-03-23T20:06:43.549Z,17.00
2023-03-23T20:09:11.254Z,17.00
2023-03-23T20:12:00.216Z,17.00
2023-03-23T20:15:16.864Z,17.00
2023-03-23T20:18:34.586Z,17.00
2023-03-23T20:21:31.732Z,17.00
2023-03-23T20:23:59.427Z,17.00
2023-03-23T20:27:03.298Z,17.00
2023-03-23T20:29:39.535Z,17.00
2023-03-23T20:32:33.540Z,17.00
2023-03-23T20:38:20.640Z,17.00
2023-03-23T20:41:26.759Z,17.10
2023-03-23T20:44:32.754Z,17.10
2023-03-23T20:47:17.778Z,17.10
2023-03-23T20:50:13.173Z,17.10
2023-03-23T20:53:04.759Z,17.10
2023-03-23T20:55:39.889Z,17.10
2023-03-23T20:58:08.280Z,17.10
2023-03-23T21:00:58.025Z,17.10
2023-03-23T21:04:03.728Z,17.10
2023-03-23T21:06:38.412Z,17.00
2023-03-23T21:09:23.476Z,17.00
2023-03-23T21:12:12.591Z,16.90
2023-03-23T21:15:26.242Z,16.90
2023-03-23T21:18:00.908Z,16.90
2023-03-23T21:20:47.964Z,16.80
2023-03-23T21:23:37.744Z,16.80
2023-03-23T21:29:32.589Z,16.70
2023-03-23T21:32:15.574Z,16.70
2023-03-23T21:34:50.448Z,16.70
2023-03-23T21:37:24.481Z,16.60
2023-03-23T21:40:17.297Z,16.60
2023-03-23T21:42:49.601Z,16.50
2023-03-23T21:45:27.738Z,16.40
2023-03-23T21:47:57.420Z,16.40
2023-03-23T21:50:27.053Z,16.40
2023-03-23T21:52:58.269Z,16.30
2023-03-23T21:55:29.808Z,16.30
2023-03-23T21:58:01.750Z,16.30
2023-03-23T22:00:30.119Z,16.20
2023-03-23T22:02:57.517Z,16.20
2023-03-23T22:05:25.230Z,16.10
2023-03-23T22:07:54.499Z,16.10
2023-03-23T22:10:22.253Z,16.10
2023-03-23T22:12:53.742Z,16.10
2023-03-23T22:15:28.087Z,16.00
2023-03-23T22:17:56.303Z,16.00
2023-03-23T22:20:24.249Z,15.90
2023-03-23T22:22:52.122Z,15.90
2023-03-23T22:25:20.918Z,15.80
2023-03-23T22:28:28.324Z,15.80
2023-03-23T22:31:05.638Z,15.80
2023-03-23T22:33:54.258Z,15.70
2023-03-23T22:37:18.237Z,15.70
2023-03-23T22:43:44.632Z,15.60
2023-03-23T22:46:32.584Z,15.60
2023-03-23T22:49:34.980Z,15.50
2023-03-23T22:52:53.264Z,15.50
2023-03-23T22:58:30.705Z,15.40
2023-03-23T23:04:34.309Z,15.30
2023-03-23T23:23:06.178Z,15.00
2023-03-23T23:33:30.258Z,14.80
